ASIAQ
Weather Now
GREENLAND SURVEY
Sorting:
| Location |
Updated [WGT/WGST] |
Temperature [°C] |
Wind [m/s] |
Air pressure [hPa] |
Relative humidity [%] |
Precipitation [mm] |
| Present | Wind chill | Speed | Max |
| Qaanaaq | 03.05 16:00 | -7,8 | n/a | 1,1 ⇒ | 1,7 | 1032 | 63 | 0,0 |
| Kitsissut | 03.05 16:00 | -9,1 | -16,4 | 5,1 ⇘ | 5,7 | 1034 | 70 | n/a |
| Kitsissorsuit | 03.05 16:00 | -13,6 | -22,5 | 5,7 ⇘ | 6,7 | 1030 | 83 | n/a |
| Upernavik | 03.05 16:00 | -11,0 | -18,4 | 4,7 ⇓ | 6,2 | 1017 | 82 | 0,0 |
| Qaarsut | 03.05 16:00 | n/a | n/a | 7,7 ⇒ | n/a | 1020 | n/a | n/a |
| Nuussuaq | 03.05 16:00 | -9,0 | -16,7 | 5,7 ⇙ | 7,7 | 1028 | 61 | n/a |
| Qeqertarsuaq | 03.05 16:00 | -7,1 | -16,6 | 10,4 ⇙ | 13,1 | 1027 | 55 | 0,1 |
| Ilulissat | 03.05 16:00 | -6,9 | -14,9 | 7,2 ⇓ | 8,8 | 1025 | 62 | 0,0 |
| Qasigiannguit | 03.05 16:00 | -5,6 | -12,3 | 5,6 ⇓ | 9,4 | 1025 | 69 | 0,0 |
| Aasiaat | 03.05 16:00 | -6,3 | -14,1 | 7,2 ⇙ | 9,5 | 1023 | 70 | 0,0 |
| Kangerlussuaq | 03.05 16:00 | -2,0 | -6,7 | 4,0 ⇓ | 5,9 | 1020 | 60 | n/a |
| Sisimiut | 03.05 16:00 | 0,4 | -1,3 | 1,5 ⇓ | n/a | 1024 | 40 | 0,0 |
| Maniitsoq | 03.05 16:00 | 1,8 | -0,5 | 2,1 ⇙ | 2,6 | 1019 | 92 | 0,0 |
| Sioralik | 03.05 16:00 | 1,2 | n/a | n/a | n/a | 1021 | 95 | n/a |
| Niaqornaa | n/a | n/a | n/a | n/a | n/a | n/a | n/a | n/a |
| Qeqertannguaq | 03.05 16:00 | 5,0 | 3,3 | 2,0 ⇓ | 3,5 | n/a | 83 | n/a |
| Kapisillit | 03.05 16:00 | 4,1 | -0,9 | 7,7 ⇐ | 9,9 | 1012 | 81 | 0,0 |
| Kuanninnguit | n/a | n/a | n/a | n/a | n/a | n/a | n/a | n/a |
| Nuuk City | 03.05 16:00 | 4,7 | 1,5 | 3,9 ⇙ | 6,6 | 1010 | 75 | 0,0 |
| Ukiiviit | 03.05 16:00 | 1,8 | -2,7 | 5,1 ⇖ | 7,2 | 1019 | 99 | n/a |
| Paamiut | 03.05 16:00 | 2,9 | n/a | 0,0 ⇓ | 0,0 | 1017 | 100 | 0,2 |
| Narsarsuaq | 03.05 16:00 | 8,8 | 7,3 | 2,6 ⇒ | n/a | 1017 | 62 | n/a |
| Narsaq | 03.05 16:00 | 7,3 | 5,5 | 2,6 ⇘ | 3,8 | 1019 | 63 | 0,0 |
| Nunarsuit | 03.05 16:00 | 2,4 | -1,1 | 3,6 ⇖ | 4,6 | 1018 | 93 | n/a |
| Upernaviarsuk | 03.05 16:00 | 6,3 | 4,6 | 2,4 ⇑ | 4,1 | 1021 | 73 | n/a |
| Qaqortoq | 03.05 16:00 | 6,0 | 3,9 | 2,8 ⇘ | 5,8 | 1014 | 70 | 0,0 |
| Angisoq | 03.05 16:00 | 3,1 | -3,3 | 11,3 ⇒ | 13,9 | 1019 | 80 | n/a |
| Prins Christian Sund | 03.05 16:00 | 3,5 | 1,0 | 2,6 ⇖ | 4,6 | 1009 | 69 | n/a |
| Nanortalik | 03.05 16:00 | 5,5 | 1,9 | 5,2 ⇓ | 7,3 | 1020 | 70 | n/a |
| Ikermiuarsuk | 03.05 16:00 | 1,4 | -2,3 | 3,6 ⇓ | 5,7 | 1014 | 83 | n/a |
| Ikermit | 03.05 16:00 | 4,3 | 3,1 | 1,5 ⇖ | 3,1 | 1008 | 40 | n/a |
| Kulusuk | 03.05 16:00 | 3,2 | 1,3 | 2,0 ⇓ | 6,4 | 1012 | 40 | n/a |
| Tasiilaq | 03.05 16:00 | 4,0 | -0,2 | 5,6 ⇘ | 11,8 | 1010 | 28 | 0,0 |
| Aputiteeq | 03.05 16:00 | -0,8 | -4,6 | 3,1 ⇑ | 3,6 | 1013 | 62 | n/a |
| Ittoqqortoormiit | 03.05 16:00 | -0,4 | n/a | 0,2 ⇖ | 1,3 | 1008 | 42 | n/a |
| Nerlerit Inaat | n/a | n/a | n/a | n/a | n/a | n/a | n/a | n/a |
| Daneborg | 03.05 16:00 | -3,7 | -11,5 | 9,0 ⇓ | 11,0 | 1015 | 64 | n/a |
| Zackenberg | 03.05 12:00 | n/a | n/a | 6,1 ⇘ | 9,8 | n/a | n/a | n/a |
| Danmarkshavn | 03.05 16:00 | -5,4 | n/a | n/a | 14,0 | 1017 | 80 | n/a |
| Henrik Krøyer Holme | 03.05 16:00 | -8,6 | -21,5 | 20,0 ⇓ | 26,0 | 1018 | 84 | n/a |
| Station Nord | 03.05 16:00 | -10,8 | -19,6 | 7,0 ⇓ | 8,0 | 1022 | 88 | n/a |
| Kap Morris Jesup | 03.05 16:00 | -11,2 | -23,7 | 15,0 ⇒ | 19,0 | 1031 | 76 | n/a |
Advanced version ⤻
Data source - Operated by - Disclaimer ▼